Time;durP1;ratioP1;P1;durP2;ratioP2;P2;SDS_P1;SDS_P2;PMS_P1;PMS_P2;Temp;Humidity;BMP_temperature;BMP_pressure;BME280_temperature;BME280_humidity;BME280_pressure;Samples;Min_cycle;Max_cycle;Signal;HPM_P1;HPM_P2
2022/07/13 00:00:00;;;;;;;4.40;1.70;;;;;;;;;;5092593;28;20826;-51
2022/07/13 00:02:26;;;;;;;2.40;1.90;;;;;;;;;;5093038;28;20230;-52
2022/07/13 00:04:52;;;;;;;2.67;1.60;;;;;;;;;;5093086;28;20205;-52
2022/07/13 00:07:19;;;;;;;1.70;1.60;;;;;;;;;;5093009;28;20289;-52
2022/07/13 00:09:45;;;;;;;1.60;1.50;;;;;;;;;;5093104;28;20224;-52
2022/07/13 00:12:11;;;;;;;3.23;1.63;;;;;;;;;;5092870;28;20663;-52
2022/07/13 00:14:37;;;;;;;2.07;1.77;;;;;;;;;;5092861;28;20199;-53
2022/07/13 00:17:03;;;;;;;1.70;1.60;;;;;;;;;;5092860;28;20194;-52
2022/07/13 00:19:29;;;;;;;3.43;1.50;;;;;;;;;;5092672;28;20329;-53
2022/07/13 00:21:55;;;;;;;1.70;1.40;;;;;;;;;;5092685;28;20283;-52
2022/07/13 00:24:22;;;;;;;1.63;1.53;;;;;;;;;;5092544;28;20197;-52
2022/07/13 00:26:48;;;;;;;2.27;1.70;;;;;;;;;;5092805;28;20240;-50
2022/07/13 00:29:14;;;;;;;1.40;1.30;;;;;;;;;;5092600;28;20619;-51
2022/07/13 00:31:42;;;;;;;1.57;1.40;;;;;;;;;;5092512;28;20660;-51
2022/07/13 00:34:08;;;;;;;1.60;1.50;;;;;;;;;;5092435;28;20706;-51
2022/07/13 00:36:34;;;;;;;2.57;1.60;;;;;;;;;;5092669;28;20263;-52
2022/07/13 00:39:00;;;;;;;2.00;1.50;;;;;;;;;;5092455;28;20193;-52
2022/07/13 00:41:27;;;;;;;1.70;1.50;;;;;;;;;;5092389;28;20572;-51
2022/07/13 00:43:53;;;;;;;1.70;1.60;;;;;;;;;;5092436;28;20279;-52
2022/07/13 00:46:20;;;;;;;1.50;1.40;;;;;;;;;;5092104;28;20686;-52
2022/07/13 00:48:46;;;;;;;1.60;1.50;;;;;;;;;;5092446;28;20251;-51
2022/07/13 00:51:12;;;;;;;2.63;1.60;;;;;;;;;;5092264;28;20606;-51
2022/07/13 00:53:39;;;;;;;1.70;1.40;;;;;;;;;;5092388;28;20199;-52
2022/07/13 00:56:05;;;;;;;1.70;1.60;;;;;;;;;;5092236;28;20651;-52
2022/07/13 00:58:33;;;;;;;1.77;1.63;;;;;;;;;;5092440;28;20202;-52
2022/07/13 01:00:59;;;;;;;1.80;1.70;;;;;;;;;;5091824;28;20229;-51
2022/07/13 01:03:25;;;;;;;1.70;1.60;;;;;;;;;;5091654;28;20276;-50
2022/07/13 01:05:53;;;;;;;4.30;1.70;;;;;;;;;;5092045;28;20243;-51
2022/07/13 01:08:20;;;;;;;2.17;1.63;;;;;;;;;;5092058;28;20678;-52
2022/07/13 01:10:47;;;;;;;2.17;1.40;;;;;;;;;;5092058;28;20228;-51
2022/07/13 01:13:16;;;;;;;1.60;1.50;;;;;;;;;;5091918;28;20254;-51
2022/07/13 01:15:43;;;;;;;3.00;1.67;;;;;;;;;;5091804;28;20667;-52
2022/07/13 01:18:11;;;;;;;1.60;1.50;;;;;;;;;;5091818;28;20204;-52
2022/07/13 01:20:37;;;;;;;1.60;1.50;;;;;;;;;;5091538;28;20587;-51
2022/07/13 01:23:08;;;;;;;1.70;1.60;;;;;;;;;;5091875;28;20285;-52
2022/07/13 01:25:34;;;;;;;1.50;1.40;;;;;;;;;;5091917;28;20660;-52
2022/07/13 01:28:00;;;;;;;2.60;1.60;;;;;;;;;;5091823;28;20197;-52
2022/07/13 01:30:25;;;;;;;1.70;1.60;;;;;;;;;;5091686;28;20207;-52
2022/07/13 01:32:51;;;;;;;1.50;1.40;;;;;;;;;;5091751;28;20267;-52
2022/07/13 01:35:18;;;;;;;2.47;1.40;;;;;;;;;;5093181;28;20211;-52
2022/07/13 01:37:44;;;;;;;1.60;1.50;;;;;;;;;;5095930;28;20202;-51
2022/07/13 01:40:12;;;;;;;1.67;1.57;;;;;;;;;;5095562;28;20227;-51
2022/07/13 01:42:40;;;;;;;1.60;1.50;;;;;;;;;;5095658;28;20211;-52
2022/07/13 01:45:07;;;;;;;1.60;1.50;;;;;;;;;;5095297;28;20202;-51
2022/07/13 01:47:36;;;;;;;1.53;1.43;;;;;;;;;;5095640;28;20204;-52
2022/07/13 01:50:03;;;;;;;1.57;1.47;;;;;;;;;;5095495;28;20196;-53
2022/07/13 01:52:28;;;;;;;1.87;1.77;;;;;;;;;;5095304;28;20196;-51
2022/07/13 01:54:55;;;;;;;1.80;1.57;;;;;;;;;;5095457;28;20564;-51
2022/07/13 01:57:22;;;;;;;3.57;1.70;;;;;;;;;;5095277;28;20197;-52
2022/07/13 01:59:48;;;;;;;1.60;1.50;;;;;;;;;;5095173;28;20247;-51
2022/07/13 02:02:14;;;;;;;1.80;1.60;;;;;;;;;;5094975;28;20205;-51
2022/07/13 02:04:40;;;;;;;2.67;1.50;;;;;;;;;;5095311;28;20210;-51
2022/07/13 02:07:06;;;;;;;1.60;1.50;;;;;;;;;;5095053;28;20200;-52
2022/07/13 02:09:32;;;;;;;1.93;1.73;;;;;;;;;;5095217;28;20322;-52
2022/07/13 02:11:58;;;;;;;1.70;1.60;;;;;;;;;;5095116;28;20559;-53
2022/07/13 02:14:25;;;;;;;3.07;1.30;;;;;;;;;;5094897;28;20249;-52
2022/07/13 02:16:51;;;;;;;1.53;1.43;;;;;;;;;;5094993;28;20202;-52
2022/07/13 02:19:18;;;;;;;1.93;1.40;;;;;;;;;;5094864;28;20721;-51
2022/07/13 02:21:46;;;;;;;1.60;1.50;;;;;;;;;;5094749;28;20245;-51
2022/07/13 02:24:12;;;;;;;1.40;1.30;;;;;;;;;;5094716;28;20208;-53
2022/07/13 02:26:38;;;;;;;2.03;1.60;;;;;;;;;;5094436;28;20209;-53
2022/07/13 02:29:04;;;;;;;1.80;1.70;;;;;;;;;;5094564;28;20676;-53
2022/07/13 02:31:34;;;;;;;1.70;1.57;;;;;;;;;;5094536;28;20201;-51
2022/07/13 02:34:00;;;;;;;1.50;1.40;;;;;;;;;;5094686;28;20205;-51
2022/07/13 02:36:26;;;;;;;1.67;1.43;;;;;;;;;;5094421;28;20198;-52
2022/07/13 02:38:52;;;;;;;2.57;1.73;;;;;;;;;;5094586;28;20232;-52
2022/07/13 02:41:18;;;;;;;1.47;1.37;;;;;;;;;;5094497;28;20714;-51
2022/07/13 02:43:44;;;;;;;1.73;1.60;;;;;;;;;;5094505;28;20310;-51
2022/07/13 02:46:10;;;;;;;1.63;1.53;;;;;;;;;;5093453;28;20229;-52
2022/07/13 02:48:38;;;;;;;1.70;1.60;;;;;;;;;;5094069;28;20201;-51
2022/07/13 02:51:04;;;;;;;1.77;1.53;;;;;;;;;;5094407;28;20683;-51
2022/07/13 02:53:30;;;;;;;2.20;1.40;;;;;;;;;;5094303;28;20200;-51
2022/07/13 02:55:56;;;;;;;2.27;1.63;;;;;;;;;;5094339;28;20197;-52
2022/07/13 02:58:23;;;;;;;2.87;1.40;;;;;;;;;;5094201;28;20198;-52
2022/07/13 03:00:49;;;;;;;3.30;1.70;;;;;;;;;;5094079;28;20229;-52
2022/07/13 03:03:15;;;;;;;3.83;1.63;;;;;;;;;;5094091;28;20250;-51
2022/07/13 03:05:42;;;;;;;1.53;1.43;;;;;;;;;;5094118;28;20566;-52
2022/07/13 03:08:08;;;;;;;1.70;1.60;;;;;;;;;;5093970;28;20284;-52
2022/07/13 03:10:34;;;;;;;3.07;1.70;;;;;;;;;;5094050;28;20288;-52
2022/07/13 03:13:00;;;;;;;1.50;1.40;;;;;;;;;;5093980;28;20196;-51
2022/07/13 03:15:26;;;;;;;2.93;1.67;;;;;;;;;;5093666;28;20192;-51
2022/07/13 03:17:52;;;;;;;1.93;1.73;;;;;;;;;;5093933;28;20684;-52
2022/07/13 03:20:19;;;;;;;2.63;1.60;;;;;;;;;;5093751;28;20233;-52
2022/07/13 03:22:49;;;;;;;2.07;1.70;;;;;;;;;;5093739;28;20671;-52
2022/07/13 03:25:15;;;;;;;2.03;1.50;;;;;;;;;;5093547;28;20209;-52
2022/07/13 03:27:41;;;;;;;1.50;1.40;;;;;;;;;;5093656;28;20421;-51
2022/07/13 03:30:08;;;;;;;2.30;1.40;;;;;;;;;;5093327;28;20192;-53
2022/07/13 03:32:34;;;;;;;2.33;1.40;;;;;;;;;;5093683;28;20202;-51
2022/07/13 03:35:00;;;;;;;1.60;1.50;;;;;;;;;;5093594;28;20197;-51
2022/07/13 03:37:26;;;;;;;1.73;1.60;;;;;;;;;;5093322;28;20207;-53
2022/07/13 03:39:53;;;;;;;1.50;1.40;;;;;;;;;;5093365;28;20702;-52
2022/07/13 03:42:19;;;;;;;1.80;1.50;;;;;;;;;;5093354;28;20691;-50
2022/07/13 03:44:45;;;;;;;1.40;1.30;;;;;;;;;;5093325;28;20201;-52
2022/07/13 03:47:11;;;;;;;1.50;1.40;;;;;;;;;;5093164;28;20451;-51
2022/07/13 03:49:37;;;;;;;1.70;1.60;;;;;;;;;;5093192;28;20194;-50
2022/07/13 03:52:03;;;;;;;1.60;1.50;;;;;;;;;;5093212;28;20280;-52
2022/07/13 03:54:29;;;;;;;3.13;1.30;;;;;;;;;;5093026;28;20205;-50
2022/07/13 03:56:56;;;;;;;2.47;1.60;;;;;;;;;;5093062;28;20197;-52
2022/07/13 03:59:22;;;;;;;1.57;1.47;;;;;;;;;;5092274;28;20240;-52
2022/07/13 04:01:48;;;;;;;2.07;1.50;;;;;;;;;;5092834;28;20202;-52
2022/07/13 04:04:14;;;;;;;1.70;1.50;;;;;;;;;;5092693;28;20201;-51
2022/07/13 04:06:40;;;;;;;1.67;1.40;;;;;;;;;;5092816;28;20201;-53
2022/07/13 04:09:06;;;;;;;2.70;1.40;;;;;;;;;;5092659;28;20205;-52
2022/07/13 04:11:32;;;;;;;1.80;1.47;;;;;;;;;;5093019;28;20200;-51
2022/07/13 04:13:59;;;;;;;3.50;1.70;;;;;;;;;;5093237;28;20277;-51
2022/07/13 04:16:25;;;;;;;2.80;1.50;;;;;;;;;;5092214;28;20213;-51
2022/07/13 04:18:51;;;;;;;1.60;1.50;;;;;;;;;;5092721;28;20202;-51
2022/07/13 04:21:17;;;;;;;3.00;1.70;;;;;;;;;;5091818;28;20266;-52
2022/07/13 04:23:43;;;;;;;2.73;1.70;;;;;;;;;;5092400;28;20667;-51
2022/07/13 04:26:09;;;;;;;2.47;1.60;;;;;;;;;;5092159;28;20251;-52
2022/07/13 04:28:35;;;;;;;1.60;1.50;;;;;;;;;;5092365;28;20200;-50
2022/07/13 04:31:02;;;;;;;1.60;1.50;;;;;;;;;;5092265;28;20601;-50
2022/07/13 04:33:28;;;;;;;1.63;1.40;;;;;;;;;;5092216;28;20667;-52
2022/07/13 04:35:54;;;;;;;2.23;1.67;;;;;;;;;;5092413;28;20212;-51
2022/07/13 04:38:20;;;;;;;1.83;1.70;;;;;;;;;;5092111;28;20198;-52
2022/07/13 04:40:46;;;;;;;2.30;1.70;;;;;;;;;;5092134;28;20239;-52
2022/07/13 04:43:12;;;;;;;1.87;1.53;;;;;;;;;;5092130;28;20280;-52
2022/07/13 04:45:38;;;;;;;1.60;1.50;;;;;;;;;;5092349;28;20203;-52
2022/07/13 04:48:06;;;;;;;1.90;1.70;;;;;;;;;;5092220;28;20202;-50
2022/07/13 04:50:32;;;;;;;3.63;1.60;;;;;;;;;;5092154;28;20194;-51
2022/07/13 04:52:58;;;;;;;1.90;1.70;;;;;;;;;;5092205;28;20204;-52
2022/07/13 04:55:24;;;;;;;1.70;1.40;;;;;;;;;;5092011;28;20756;-51
2022/07/13 04:57:50;;;;;;;2.13;1.50;;;;;;;;;;5092266;28;20627;-52
2022/07/13 05:00:16;;;;;;;2.23;1.60;;;;;;;;;;5091854;28;20218;-51
2022/07/13 05:02:42;;;;;;;1.70;1.60;;;;;;;;;;5092053;28;20201;-51
2022/07/13 05:05:09;;;;;;;3.43;1.77;;;;;;;;;;5091895;28;20199;-52
2022/07/13 05:07:36;;;;;;;1.40;1.30;;;;;;;;;;5091771;28;20224;-52
2022/07/13 05:10:01;;;;;;;1.50;1.40;;;;;;;;;;5092960;28;20281;-52
2022/07/13 05:12:27;;;;;;;1.40;1.30;;;;;;;;;;5096053;28;20732;-50
2022/07/13 05:14:53;;;;;;;3.17;1.47;;;;;;;;;;5095450;28;20517;-50
2022/07/13 05:17:19;;;;;;;1.50;1.40;;;;;;;;;;5095563;28;20198;-50
2022/07/13 05:19:45;;;;;;;2.33;1.50;;;;;;;;;;5096061;28;20589;-49
2022/07/13 05:22:13;;;;;;;2.47;1.40;;;;;;;;;;5095907;28;20238;-49
2022/07/13 05:24:43;;;;;;;1.40;1.30;;;;;;;;;;5094720;28;20615;-50
2022/07/13 05:27:10;;;;;;;2.13;1.33;;;;;;;;;;5095684;28;20233;-50
2022/07/13 05:29:36;;;;;;;1.97;1.40;;;;;;;;;;5095536;28;20190;-49
2022/07/13 05:32:02;;;;;;;3.23;1.60;;;;;;;;;;5095524;28;20256;-50
2022/07/13 05:34:27;;;;;;;2.53;1.73;;;;;;;;;;5095341;28;20205;-50
2022/07/13 05:36:55;;;;;;;1.37;1.27;;;;;;;;;;5095396;28;20197;-50
2022/07/13 05:39:22;;;;;;;2.57;1.67;;;;;;;;;;5095176;28;20672;-49
2022/07/13 05:41:48;;;;;;;6.60;1.87;;;;;;;;;;5095376;28;20202;-50
2022/07/13 05:44:14;;;;;;;1.70;1.60;;;;;;;;;;5095248;28;20225;-50
2022/07/13 05:46:40;;;;;;;2.77;1.60;;;;;;;;;;5095165;28;20248;-50
2022/07/13 05:49:06;;;;;;;1.60;1.40;;;;;;;;;;5095053;28;20563;-50
2022/07/13 05:51:32;;;;;;;2.87;1.57;;;;;;;;;;5095153;28;20202;-50
2022/07/13 05:53:58;;;;;;;1.83;1.20;;;;;;;;;;5095200;28;20665;-49
2022/07/13 05:56:25;;;;;;;2.20;1.40;;;;;;;;;;5094997;28;20191;-50
2022/07/13 05:58:51;;;;;;;2.23;1.70;;;;;;;;;;5095124;28;20202;-49
2022/07/13 06:01:18;;;;;;;1.70;1.60;;;;;;;;;;5094964;28;20230;-50
2022/07/13 06:03:43;;;;;;;3.30;1.83;;;;;;;;;;5095105;28;20195;-50
2022/07/13 06:06:09;;;;;;;2.40;1.77;;;;;;;;;;5094980;28;20189;-50
2022/07/13 06:08:38;;;;;;;2.03;1.80;;;;;;;;;;5094930;28;20649;-50
2022/07/13 06:11:04;;;;;;;2.40;1.70;;;;;;;;;;5095032;28;20231;-50
2022/07/13 06:13:31;;;;;;;3.10;1.67;;;;;;;;;;5094767;28;20297;-50
2022/07/13 06:15:59;;;;;;;2.43;1.90;;;;;;;;;;5094835;28;20211;-56
2022/07/13 06:18:25;;;;;;;5.17;2.00;;;;;;;;;;5094591;28;20668;-50
2022/07/13 06:20:51;;;;;;;2.33;1.70;;;;;;;;;;5094120;28;20705;-50
2022/07/13 06:23:18;;;;;;;6.27;1.83;;;;;;;;;;5094725;28;20210;-50
2022/07/13 06:25:46;;;;;;;2.67;1.57;;;;;;;;;;5094746;28;20202;-50
2022/07/13 06:28:12;;;;;;;5.40;2.10;;;;;;;;;;5094599;28;20199;-50
2022/07/13 06:30:40;;;;;;;3.07;1.80;;;;;;;;;;5094269;28;20225;-49
2022/07/13 06:33:06;;;;;;;3.87;1.70;;;;;;;;;;5094313;28;20195;-50
2022/07/13 06:35:32;;;;;;;4.80;2.13;;;;;;;;;;5094395;28;20290;-50
2022/07/13 06:37:58;;;;;;;1.80;1.70;;;;;;;;;;5094431;28;20203;-49
2022/07/13 06:40:25;;;;;;;2.07;1.70;;;;;;;;;;5094175;28;20225;-50
2022/07/13 06:42:51;;;;;;;2.10;1.60;;;;;;;;;;5094238;28;20253;-49
2022/07/13 06:45:17;;;;;;;3.90;1.93;;;;;;;;;;5094117;28;20299;-50
2022/07/13 06:47:44;;;;;;;2.73;1.73;;;;;;;;;;5094212;28;20206;-50
2022/07/13 06:50:11;;;;;;;2.47;1.90;;;;;;;;;;5094159;28;20195;-49
2022/07/13 06:52:44;;;;;;;3.57;1.93;;;;;;;;;;5093956;28;20208;-49
2022/07/13 06:55:10;;;;;;;2.43;1.70;;;;;;;;;;5093986;28;20770;-51
2022/07/13 06:57:36;;;;;;;2.73;1.90;;;;;;;;;;5094086;28;20199;-50
2022/07/13 07:00:03;;;;;;;2.97;1.77;;;;;;;;;;5093888;28;20559;-50
2022/07/13 07:02:29;;;;;;;2.50;1.57;;;;;;;;;;5093887;28;20686;-50
2022/07/13 07:04:56;;;;;;;3.53;2.03;;;;;;;;;;5093795;28;20218;-50
2022/07/13 07:07:22;;;;;;;4.57;1.67;;;;;;;;;;5093678;28;20573;-50
2022/07/13 07:09:48;;;;;;;3.03;1.70;;;;;;;;;;5093898;28;20214;-51
2022/07/13 07:12:14;;;;;;;2.53;1.70;;;;;;;;;;5093687;28;20549;-53
2022/07/13 07:14:40;;;;;;;2.93;1.77;;;;;;;;;;5093657;28;20205;-48
2022/07/13 07:17:06;;;;;;;2.30;1.83;;;;;;;;;;5093488;28;20209;-50
2022/07/13 07:19:33;;;;;;;2.47;1.70;;;;;;;;;;5093554;28;20287;-50
2022/07/13 07:22:00;;;;;;;3.93;1.70;;;;;;;;;;5093262;28;20647;-51
2022/07/13 07:24:26;;;;;;;5.53;2.00;;;;;;;;;;5093349;28;20506;-51
2022/07/13 07:26:52;;;;;;;3.50;1.80;;;;;;;;;;5093469;28;20544;-50
2022/07/13 07:29:19;;;;;;;2.60;1.60;;;;;;;;;;5093364;28;20206;-51
2022/07/13 07:31:45;;;;;;;2.03;1.80;;;;;;;;;;5093689;28;20215;-50
2022/07/13 07:34:11;;;;;;;2.40;1.60;;;;;;;;;;5092579;28;20275;-51
2022/07/13 07:36:37;;;;;;;1.90;1.77;;;;;;;;;;5093073;28;20295;-51
2022/07/13 07:39:04;;;;;;;3.63;2.00;;;;;;;;;;5093402;28;20760;-51
2022/07/13 07:41:30;;;;;;;3.23;2.20;;;;;;;;;;5093038;28;20284;-51
2022/07/13 07:43:56;;;;;;;2.73;2.00;;;;;;;;;;5092909;28;20201;-49
2022/07/13 07:46:22;;;;;;;3.07;1.60;;;;;;;;;;5092983;28;20206;-50
2022/07/13 07:48:48;;;;;;;3.80;2.07;;;;;;;;;;5093141;28;20226;-51
2022/07/13 07:51:15;;;;;;;2.10;1.50;;;;;;;;;;5092908;28;20196;-51
2022/07/13 07:53:41;;;;;;;2.17;1.97;;;;;;;;;;5092998;28;20647;-50
2022/07/13 07:56:08;;;;;;;1.90;1.77;;;;;;;;;;5093006;28;20670;-50
2022/07/13 07:58:34;;;;;;;2.43;1.80;;;;;;;;;;5093157;28;20200;-51
2022/07/13 08:01:01;;;;;;;2.60;1.83;;;;;;;;;;5092694;28;20232;-51
2022/07/13 08:03:28;;;;;;;2.40;1.70;;;;;;;;;;5092587;28;20212;-50
2022/07/13 08:05:57;;;;;;;6.13;1.97;;;;;;;;;;5092862;28;20203;-50
2022/07/13 08:08:23;;;;;;;4.77;1.77;;;;;;;;;;5092998;28;20584;-51
2022/07/13 08:10:49;;;;;;;2.53;1.70;;;;;;;;;;5092875;28;20689;-52
2022/07/13 08:13:16;;;;;;;3.03;1.80;;;;;;;;;;5092900;28;20238;-51
2022/07/13 08:15:42;;;;;;;4.60;1.80;;;;;;;;;;5092999;28;20548;-50
2022/07/13 08:18:09;;;;;;;3.43;1.63;;;;;;;;;;5092754;28;20290;-51
2022/07/13 08:20:36;;;;;;;5.17;1.80;;;;;;;;;;5092247;28;20652;-50
2022/07/13 08:23:02;;;;;;;5.03;1.80;;;;;;;;;;5092967;28;20202;-51
2022/07/13 08:25:28;;;;;;;3.27;1.90;;;;;;;;;;5092689;28;20250;-51
2022/07/13 08:27:54;;;;;;;2.87;1.80;;;;;;;;;;5092674;28;20240;-51
2022/07/13 08:30:21;;;;;;;2.83;1.70;;;;;;;;;;5092540;28;20222;-51
2022/07/13 08:32:47;;;;;;;2.70;1.77;;;;;;;;;;5092682;28;20203;-52
2022/07/13 08:40:43;;;;;;;3.00;1.70;;;;;;;;;;5092492;28;20591;-50
2022/07/13 08:43:09;;;;;;;2.27;1.77;;;;;;;;;;5092229;28;20229;-51
2022/07/13 08:45:36;;;;;;;2.17;1.60;;;;;;;;;;5092233;28;20237;-50
2022/07/13 08:48:05;;;;;;;2.83;1.57;;;;;;;;;;5092494;28;20205;-51
2022/07/13 08:50:33;;;;;;;2.90;1.60;;;;;;;;;;5092386;28;20187;-51
2022/07/13 08:52:59;;;;;;;2.33;1.60;;;;;;;;;;5092300;28;20205;-52
2022/07/13 08:55:26;;;;;;;1.73;1.43;;;;;;;;;;5092123;28;20242;-51
2022/07/13 08:57:52;;;;;;;3.07;1.83;;;;;;;;;;5092031;28;20571;-49
2022/07/13 09:00:21;;;;;;;2.23;1.80;;;;;;;;;;5091752;28;20286;-50
2022/07/13 09:02:50;;;;;;;3.50;1.63;;;;;;;;;;5092089;28;20207;-51
2022/07/13 09:05:19;;;;;;;1.77;1.50;;;;;;;;;;5091527;28;20208;-51
2022/07/13 09:08:00;;;;;;;2.17;1.77;;;;;;;;;;5091886;28;20202;-51
2022/07/13 09:10:26;;;;;;;1.50;1.40;;;;;;;;;;5091826;28;20556;-51
2022/07/13 09:12:52;;;;;;;1.90;1.73;;;;;;;;;;5091766;28;20682;-51
2022/07/13 09:15:18;;;;;;;2.33;1.50;;;;;;;;;;5091912;28;20280;-51
2022/07/13 09:17:44;;;;;;;3.10;1.73;;;;;;;;;;5091798;28;20198;-51
2022/07/13 09:20:17;;;;;;;2.37;1.73;;;;;;;;;;5091657;28;20231;-51
2022/07/13 09:22:47;;;;;;;2.10;1.53;;;;;;;;;;5091931;28;20782;-50
2022/07/13 09:25:23;;;;;;;1.80;1.70;;;;;;;;;;5091809;28;20229;-51
2022/07/13 09:27:50;;;;;;;3.37;1.83;;;;;;;;;;5091741;28;20231;-51
2022/07/13 09:30:23;;;;;;;5.53;1.67;;;;;;;;;;5091587;28;20198;-52
2022/07/13 09:32:49;;;;;;;2.13;1.73;;;;;;;;;;5091621;28;20191;-51
2022/07/13 09:35:17;;;;;;;1.73;1.63;;;;;;;;;;5091349;28;20212;-52
2022/07/13 09:37:43;;;;;;;2.77;1.70;;;;;;;;;;5091618;28;20220;-51
2022/07/13 09:40:10;;;;;;;2.23;1.83;;;;;;;;;;5091544;28;20235;-52
2022/07/13 09:42:37;;;;;;;2.67;1.70;;;;;;;;;;5091479;28;20251;-51
2022/07/13 09:47:49;;;;;;;3.57;1.93;;;;;;;;;;5091525;28;20197;-51
2022/07/13 09:50:17;;;;;;;2.90;1.80;;;;;;;;;;5091567;28;20200;-51
2022/07/13 09:52:45;;;;;;;2.47;2.00;;;;;;;;;;5091496;28;20280;-52
2022/07/13 09:55:12;;;;;;;2.07;1.90;;;;;;;;;;5091440;28;20576;-50
2022/07/13 09:57:44;;;;;;;4.93;1.97;;;;;;;;;;5094469;28;20316;-51
2022/07/13 10:00:11;;;;;;;2.50;1.90;;;;;;;;;;5095066;28;20278;-51
2022/07/13 10:02:38;;;;;;;4.00;1.80;;;;;;;;;;5094991;28;20292;-51
2022/07/13 10:05:05;;;;;;;2.40;2.13;;;;;;;;;;5095093;28;20202;-50
2022/07/13 10:07:31;;;;;;;2.10;1.90;;;;;;;;;;5095045;28;20248;-51
2022/07/13 10:09:58;;;;;;;4.97;2.10;;;;;;;;;;5095076;28;20297;-52
2022/07/13 10:12:24;;;;;;;2.23;1.90;;;;;;;;;;5094567;28;20563;-51
2022/07/13 10:14:53;;;;;;;3.73;2.07;;;;;;;;;;5094594;28;20202;-52
2022/07/13 10:17:20;;;;;;;4.33;1.97;;;;;;;;;;5094873;28;20225;-51
2022/07/13 10:19:49;;;;;;;2.67;2.07;;;;;;;;;;5095004;28;20275;-52
2022/07/13 10:22:18;;;;;;;2.20;1.73;;;;;;;;;;5094802;28;20292;-51
2022/07/13 10:24:50;;;;;;;5.27;2.00;;;;;;;;;;5094912;28;20199;-51
2022/07/13 10:27:22;;;;;;;2.77;1.77;;;;;;;;;;5094779;28;20689;-51
2022/07/13 10:29:48;;;;;;;3.43;1.90;;;;;;;;;;5094637;28;20583;-50
2022/07/13 10:32:16;;;;;;;2.10;1.87;;;;;;;;;;5094658;28;20197;-51
2022/07/13 10:34:50;;;;;;;1.73;1.60;;;;;;;;;;5094479;28;20193;-50
2022/07/13 10:37:16;;;;;;;2.13;1.80;;;;;;;;;;5094650;28;20223;-51
2022/07/13 10:40:02;;;;;;;1.90;1.70;;;;;;;;;;5094468;28;20244;-52
2022/07/13 10:42:50;;;;;;;4.33;1.73;;;;;;;;;;5094206;28;20246;-53
2022/07/13 10:45:30;;;;;;;4.83;2.23;;;;;;;;;;5094412;28;20623;-52
2022/07/13 10:47:57;;;;;;;2.20;1.90;;;;;;;;;;5094154;28;20663;-51
2022/07/13 10:50:23;;;;;;;2.80;1.70;;;;;;;;;;5094018;28;20194;-52
2022/07/13 10:52:49;;;;;;;3.00;2.03;;;;;;;;;;5094298;28;20663;-50
2022/07/13 10:55:28;;;;;;;7.83;2.03;;;;;;;;;;5094140;28;20263;-52
2022/07/13 10:57:56;;;;;;;3.57;1.70;;;;;;;;;;5094280;28;20213;-51
2022/07/13 11:00:36;;;;;;;3.07;1.87;;;;;;;;;;5093964;28;20246;-52
2022/07/13 11:03:04;;;;;;;2.57;1.77;;;;;;;;;;5094257;28;20230;-52
2022/07/13 11:05:34;;;;;;;4.30;1.83;;;;;;;;;;5093900;28;20270;-52
2022/07/13 11:08:11;;;;;;;1.90;1.80;;;;;;;;;;5092953;28;20191;-51
2022/07/13 11:10:37;;;;;;;2.87;1.90;;;;;;;;;;5093855;28;20503;-51
2022/07/13 11:13:08;;;;;;;3.17;1.80;;;;;;;;;;5093549;28;20197;-51
2022/07/13 11:15:43;;;;;;;7.30;1.70;;;;;;;;;;5091459;28;20216;-52
2022/07/13 11:18:29;;;;;;;2.20;1.80;;;;;;;;;;5093707;28;20254;-52
2022/07/13 11:20:56;;;;;;;4.73;1.83;;;;;;;;;;5093625;28;20225;-52
2022/07/13 11:26:09;;;;;;;4.30;1.80;;;;;;;;;;5093664;28;20208;-52
2022/07/13 11:28:40;;;;;;;3.07;1.40;;;;;;;;;;5093594;28;20202;-52
2022/07/13 11:31:07;;;;;;;4.93;1.60;;;;;;;;;;5093567;28;20196;-53
2022/07/13 11:33:34;;;;;;;6.00;1.83;;;;;;;;;;5093349;28;20713;-53
2022/07/13 11:36:01;;;;;;;1.80;1.60;;;;;;;;;;5093480;28;20199;-53
2022/07/13 11:38:34;;;;;;;2.20;1.70;;;;;;;;;;5093321;28;20199;-51
2022/07/13 11:41:00;;;;;;;1.90;1.70;;;;;;;;;;5093331;28;20230;-51
2022/07/13 11:43:26;;;;;;;1.70;1.53;;;;;;;;;;5093138;28;20248;-49
2022/07/13 11:45:54;;;;;;;2.40;1.90;;;;;;;;;;5093160;28;20199;-53
2022/07/13 11:48:24;;;;;;;1.80;1.70;;;;;;;;;;5093085;28;20217;-51
2022/07/13 11:50:52;;;;;;;4.40;1.80;;;;;;;;;;5093201;28;20633;-53
2022/07/13 11:53:22;;;;;;;1.93;1.73;;;;;;;;;;5093063;28;20220;-49
2022/07/13 11:55:48;;;;;;;3.27;2.20;;;;;;;;;;5092853;28;20652;-52
2022/07/13 11:58:21;;;;;;;2.73;1.90;;;;;;;;;;5093025;28;20205;-52
2022/07/13 12:00:47;;;;;;;4.23;1.90;;;;;;;;;;5093023;28;20253;-50
2022/07/13 12:03:14;;;;;;;3.13;1.80;;;;;;;;;;5093050;28;20206;-53
2022/07/13 12:05:44;;;;;;;7.03;1.97;;;;;;;;;;5092851;28;20217;-52
2022/07/13 12:08:11;;;;;;;4.60;2.10;;;;;;;;;;5092961;28;20198;-52
2022/07/13 12:10:37;;;;;;;6.23;1.80;;;;;;;;;;5092764;28;20232;-53
2022/07/13 12:13:03;;;;;;;3.30;1.60;;;;;;;;;;5092789;28;20679;-52
2022/07/13 12:15:32;;;;;;;2.73;1.60;;;;;;;;;;5092691;28;20215;-53
2022/07/13 12:18:03;;;;;;;4.40;1.80;;;;;;;;;;5092610;28;20601;-51
2022/07/13 12:20:33;;;;;;;2.17;1.50;;;;;;;;;;5092241;28;20241;-52
2022/07/13 12:22:59;;;;;;;1.90;1.40;;;;;;;;;;5092653;28;20214;-49
2022/07/13 12:25:26;;;;;;;3.50;1.90;;;;;;;;;;5092424;28;20200;-51
2022/07/13 12:27:52;;;;;;;2.17;1.77;;;;;;;;;;5092602;28;20206;-52
2022/07/13 12:30:18;;;;;;;5.30;1.50;;;;;;;;;;5092768;28;20195;-51
2022/07/13 12:32:58;;;;;;;4.33;1.90;;;;;;;;;;5092658;28;20797;-52
2022/07/13 12:35:27;;;;;;;2.07;1.60;;;;;;;;;;5092641;28;20207;-53
2022/07/13 12:37:55;;;;;;;2.27;1.60;;;;;;;;;;5092394;28;20194;-51
2022/07/13 12:40:38;;;;;;;3.30;2.00;;;;;;;;;;5092109;28;20715;-52
2022/07/13 12:43:04;;;;;;;2.70;1.50;;;;;;;;;;5092288;28;20208;-51
2022/07/13 12:45:30;;;;;;;2.37;1.60;;;;;;;;;;5092162;28;20201;-51
2022/07/13 12:47:56;;;;;;;2.77;1.80;;;;;;;;;;5092269;28;20289;-50
2022/07/13 12:50:26;;;;;;;3.73;1.90;;;;;;;;;;5091956;28;20237;-50
2022/07/13 12:53:00;;;;;;;4.13;1.77;;;;;;;;;;5092077;28;20611;-54
2022/07/13 12:55:26;;;;;;;3.47;1.80;;;;;;;;;;5091803;28;20209;-51
2022/07/13 12:57:52;;;;;;;3.10;1.70;;;;;;;;;;5091869;28;20219;-52
2022/07/13 13:00:22;;;;;;;2.10;1.80;;;;;;;;;;5091681;28;20699;-52
2022/07/13 13:02:48;;;;;;;2.17;1.80;;;;;;;;;;5092166;28;20198;-51
2022/07/13 13:05:15;;;;;;;3.57;1.93;;;;;;;;;;5092069;28;20193;-52
2022/07/13 13:07:41;;;;;;;2.47;1.77;;;;;;;;;;5090990;28;20197;-52
2022/07/13 13:10:09;;;;;;;3.57;2.00;;;;;;;;;;5091763;28;20198;-52
2022/07/13 13:12:36;;;;;;;3.57;2.10;;;;;;;;;;5091906;28;20289;-53
2022/07/13 13:15:03;;;;;;;8.87;2.40;;;;;;;;;;5092133;28;20204;-52
2022/07/13 13:17:29;;;;;;;5.13;2.53;;;;;;;;;;5091895;28;20201;-52
2022/07/13 13:19:56;;;;;;;3.40;2.20;;;;;;;;;;5091936;28;20602;-52
2022/07/13 13:22:22;;;;;;;4.10;2.30;;;;;;;;;;5091517;28;20303;-52
2022/07/13 13:24:49;;;;;;;4.37;2.50;;;;;;;;;;5092025;28;20561;-51
2022/07/13 13:27:16;;;;;;;5.10;2.73;;;;;;;;;;5091843;28;20263;-51
2022/07/13 13:32:27;;;;;;;4.87;2.50;;;;;;;;;;5094577;28;20659;-51
2022/07/13 13:34:53;;;;;;;3.50;2.50;;;;;;;;;;5095770;28;20233;-52
2022/07/13 13:37:19;;;;;;;4.53;2.60;;;;;;;;;;5096041;28;20561;-52
2022/07/13 13:39:45;;;;;;;8.67;2.60;;;;;;;;;;5095663;28;20191;-51
2022/07/13 13:42:11;;;;;;;3.47;2.33;;;;;;;;;;5095447;28;20240;-51
2022/07/13 13:44:39;;;;;;;2.77;2.43;;;;;;;;;;5095524;28;20233;-51
2022/07/13 13:47:05;;;;;;;5.83;2.57;;;;;;;;;;5095679;28;20209;-52
2022/07/13 13:49:31;;;;;;;3.67;2.63;;;;;;;;;;5095516;28;20204;-52
2022/07/13 13:51:57;;;;;;;3.27;2.37;;;;;;;;;;5095677;28;20196;-52
2022/07/13 13:54:23;;;;;;;11.00;2.80;;;;;;;;;;5095130;28;20566;-51
2022/07/13 13:56:49;;;;;;;3.90;2.30;;;;;;;;;;5095315;28;20293;-52
2022/07/13 13:59:15;;;;;;;6.13;2.60;;;;;;;;;;5095343;28;20198;-51
2022/07/13 14:01:42;;;;;;;4.43;2.53;;;;;;;;;;5095059;28;20576;-50
2022/07/13 14:04:08;;;;;;;3.43;2.50;;;;;;;;;;5094987;28;20248;-50
2022/07/13 14:06:34;;;;;;;3.60;2.60;;;;;;;;;;5095050;28;20198;-52
2022/07/13 14:09:00;;;;;;;2.33;2.13;;;;;;;;;;5093472;28;20626;-51
2022/07/13 14:11:26;;;;;;;4.47;2.50;;;;;;;;;;5095056;28;20293;-52
2022/07/13 14:13:52;;;;;;;3.27;2.40;;;;;;;;;;5094911;28;20207;-50
2022/07/13 14:16:18;;;;;;;4.73;2.57;;;;;;;;;;5095182;28;20206;-52
2022/07/13 14:18:45;;;;;;;2.90;2.60;;;;;;;;;;5094905;28;20198;-52
2022/07/13 14:21:11;;;;;;;3.30;2.57;;;;;;;;;;5094745;28;20237;-53
2022/07/13 14:23:37;;;;;;;3.80;2.60;;;;;;;;;;5093270;28;20683;-51
2022/07/13 14:26:04;;;;;;;3.00;2.70;;;;;;;;;;5094985;28;20198;-50
2022/07/13 14:28:30;;;;;;;3.87;2.80;;;;;;;;;;5094969;28;20224;-52
2022/07/13 14:30:56;;;;;;;4.20;2.50;;;;;;;;;;5094967;28;20668;-52
2022/07/13 14:33:22;;;;;;;4.00;2.27;;;;;;;;;;5094653;28;20201;-53
2022/07/13 14:35:49;;;;;;;6.80;2.50;;;;;;;;;;5094382;28;20661;-51
2022/07/13 14:38:16;;;;;;;3.23;2.37;;;;;;;;;;5094275;28;20202;-51
2022/07/13 14:40:44;;;;;;;3.93;2.33;;;;;;;;;;5094138;28;20217;-52
2022/07/13 14:43:11;;;;;;;3.73;2.40;;;;;;;;;;5094200;28;20251;-52
2022/07/13 14:45:38;;;;;;;2.83;2.00;;;;;;;;;;5094296;28;20216;-51
2022/07/13 14:48:04;;;;;;;2.60;2.20;;;;;;;;;;5094404;28;20725;-52
2022/07/13 14:50:30;;;;;;;2.40;2.20;;;;;;;;;;5094356;28;20221;-51
2022/07/13 14:52:57;;;;;;;2.50;2.30;;;;;;;;;;5094458;28;20328;-52
2022/07/13 14:55:23;;;;;;;2.10;1.90;;;;;;;;;;5094093;28;20217;-52